Time;durP1;ratioP1;P1;durP2;ratioP2;P2;SDS_P1;SDS_P2;PMS_P1;PMS_P2;Temp;Humidity;BMP_temperature;BMP_pressure;BME280_temperature;BME280_humidity;BME280_pressure;Samples;Min_cycle;Max_cycle;Signal;HPM_P1;HPM_P2
2023/09/13 00:01:03;;;;;;;2.40;2.20;;;;;;;;;;10377145;22;20011;-60
2023/09/13 00:05:04;;;;;;;3.72;2.10;;;;;;;;;;10376319;22;20011;-60
2023/09/13 00:09:06;;;;;;;3.35;2.08;;;;;;;;;;10380243;22;19999;-60
2023/09/13 00:13:06;;;;;;;2.08;1.85;;;;;;;;;;10379394;22;19999;-60
2023/09/13 00:17:06;;;;;;;2.67;1.90;;;;;;;;;;10378631;22;20015;-60
2023/09/13 00:21:09;;;;;;;1.67;1.58;;;;;;;;;;10378155;22;20004;-62
2023/09/13 00:25:09;;;;;;;1.98;1.75;;;;;;;;;;10377802;22;20111;-61
2023/09/13 00:29:10;;;;;;;2.00;1.80;;;;;;;;;;10379061;22;20333;-60
2023/09/13 00:33:10;;;;;;;2.90;2.10;;;;;;;;;;10377035;22;20169;-60
2023/09/13 00:37:10;;;;;;;2.40;2.20;;;;;;;;;;10377852;22;20007;-60
2023/09/13 00:41:10;;;;;;;3.08;2.25;;;;;;;;;;10379052;22;20007;-60
2023/09/13 00:45:11;;;;;;;3.05;2.58;;;;;;;;;;10380443;22;20011;-60
2023/09/13 00:49:11;;;;;;;4.68;2.50;;;;;;;;;;10375225;22;20014;-61
2023/09/13 00:53:12;;;;;;;3.23;2.90;;;;;;;;;;10377851;22;20198;-61
2023/09/13 00:57:12;;;;;;;7.72;3.10;;;;;;;;;;10377569;22;20356;-61
2023/09/13 01:01:13;;;;;;;4.07;2.92;;;;;;;;;;10372310;22;20162;-60
2023/09/13 01:05:14;;;;;;;3.90;2.88;;;;;;;;;;10376221;22;19999;-60
2023/09/13 01:09:14;;;;;;;3.20;2.85;;;;;;;;;;10377881;22;20095;-60
2023/09/13 01:13:15;;;;;;;4.32;3.35;;;;;;;;;;10379072;22;20003;-60
2023/09/13 01:17:19;;;;;;;4.55;3.47;;;;;;;;;;10378493;22;20015;-61
2023/09/13 01:21:38;;;;;;;8.15;3.60;;;;;;;;;;10374454;22;19999;-61
2023/09/13 01:25:47;;;;;;;5.32;3.35;;;;;;;;;;10376529;22;20538;-60
2023/09/13 01:29:49;;;;;;;5.55;3.55;;;;;;;;;;10378018;22;19998;-61
2023/09/13 01:33:49;;;;;;;4.13;3.72;;;;;;;;;;10377067;22;20718;-61
2023/09/13 01:37:49;;;;;;;5.78;3.90;;;;;;;;;;10377412;22;20104;-60
2023/09/13 01:41:53;;;;;;;6.35;4.20;;;;;;;;;;10373288;22;20037;-62
2023/09/13 01:45:53;;;;;;;4.55;3.92;;;;;;;;;;10377644;22;20022;-61
2023/09/13 01:49:54;;;;;;;5.55;3.53;;;;;;;;;;10373879;22;20003;-61
2023/09/13 01:53:54;;;;;;;5.22;3.90;;;;;;;;;;10374964;22;20003;-61
2023/09/13 01:57:56;;;;;;;5.13;3.60;;;;;;;;;;10374421;22;20003;-60
2023/09/13 02:01:56;;;;;;;5.55;3.53;;;;;;;;;;10374144;22;20130;-61
2023/09/13 02:05:56;;;;;;;4.88;3.30;;;;;;;;;;10374973;22;19999;-61
2023/09/13 02:09:56;;;;;;;6.43;3.50;;;;;;;;;;10373492;22;19998;-61
2023/09/13 02:13:57;;;;;;;5.63;3.65;;;;;;;;;;10375730;22;20010;-60
2023/09/13 02:17:57;;;;;;;5.93;3.92;;;;;;;;;;10373421;22;20719;-60
2023/09/13 02:21:57;;;;;;;4.70;3.35;;;;;;;;;;10373186;22;20727;-60
2023/09/13 02:25:57;;;;;;;4.73;3.30;;;;;;;;;;10374207;22;20102;-61
2023/09/13 02:29:58;;;;;;;13.93;4.20;;;;;;;;;;10376630;22;20245;-61
2023/09/13 02:33:58;;;;;;;4.68;3.67;;;;;;;;;;10375207;22;20106;-61
2023/09/13 02:37:59;;;;;;;3.80;3.33;;;;;;;;;;10377174;22;20137;-61
2023/09/13 02:41:59;;;;;;;6.80;3.47;;;;;;;;;;10373673;22;20053;-60
2023/09/13 02:45:59;;;;;;;3.60;3.20;;;;;;;;;;10372029;22;20016;-60
2023/09/13 02:50:00;;;;;;;4.32;3.10;;;;;;;;;;10371739;22;20492;-60
2023/09/13 02:54:00;;;;;;;4.90;3.30;;;;;;;;;;10377575;22;20133;-61
2023/09/13 02:58:00;;;;;;;4.10;3.22;;;;;;;;;;10376969;22;20648;-60
2023/09/13 03:02:00;;;;;;;6.32;3.58;;;;;;;;;;10370558;22;20099;-60
2023/09/13 03:06:13;;;;;;;4.75;3.20;;;;;;;;;;10374175;22;20356;-60
2023/09/13 03:10:13;;;;;;;3.88;3.50;;;;;;;;;;10373358;22;20835;-60
2023/09/13 03:14:13;;;;;;;4.13;3.22;;;;;;;;;;10374155;22;20732;-61
2023/09/13 03:18:13;;;;;;;3.50;3.20;;;;;;;;;;10374984;22;20007;-60
2023/09/13 03:22:14;;;;;;;4.28;3.28;;;;;;;;;;10375013;22;20007;-61
2023/09/13 03:26:15;;;;;;;4.38;3.13;;;;;;;;;;10377489;22;19995;-60
2023/09/13 03:30:15;;;;;;;5.40;3.53;;;;;;;;;;10378204;22;20003;-60
2023/09/13 03:34:15;;;;;;;4.78;3.75;;;;;;;;;;10376022;22;20038;-60
2023/09/13 03:38:16;;;;;;;4.57;3.53;;;;;;;;;;10377507;22;20057;-61
2023/09/13 03:42:16;;;;;;;4.60;3.67;;;;;;;;;;10374064;22;20110;-60
2023/09/13 03:46:16;;;;;;;4.82;4.00;;;;;;;;;;10375820;22;20011;-61
2023/09/13 03:50:16;;;;;;;3.45;3.05;;;;;;;;;;10374741;22;20021;-60
2023/09/13 03:54:16;;;;;;;4.65;2.97;;;;;;;;;;10377840;22;19999;-60
2023/09/13 03:58:17;;;;;;;3.88;3.47;;;;;;;;;;10378495;22;20116;-60
2023/09/13 04:02:17;;;;;;;3.70;3.33;;;;;;;;;;10373922;22;20026;-61
2023/09/13 04:06:17;;;;;;;4.38;3.58;;;;;;;;;;10376017;22;20293;-60
2023/09/13 04:10:17;;;;;;;4.30;3.90;;;;;;;;;;10376576;22;20013;-60
2023/09/13 04:14:18;;;;;;;4.33;3.93;;;;;;;;;;10376959;22;19999;-64
2023/09/13 04:18:18;;;;;;;4.03;3.72;;;;;;;;;;10374118;22;20135;-61
2023/09/13 04:22:18;;;;;;;4.65;4.05;;;;;;;;;;10376195;22;20189;-60
2023/09/13 04:26:21;;;;;;;4.28;3.85;;;;;;;;;;10375083;22;20007;-60
2023/09/13 04:30:21;;;;;;;5.57;3.80;;;;;;;;;;10375651;22;20002;-61
2023/09/13 04:34:21;;;;;;;6.47;3.97;;;;;;;;;;10376978;22;20006;-60
2023/09/13 04:38:22;;;;;;;6.60;4.20;;;;;;;;;;10376818;22;20086;-60
2023/09/13 04:42:22;;;;;;;5.40;4.63;;;;;;;;;;10376354;22;20396;-61
2023/09/13 04:46:22;;;;;;;4.82;4.35;;;;;;;;;;10376277;22;20014;-61
2023/09/13 04:50:22;;;;;;;5.80;4.82;;;;;;;;;;10377509;22;20057;-60
2023/09/13 04:54:23;;;;;;;12.45;5.18;;;;;;;;;;10374858;22;19999;-61
2023/09/13 04:58:24;;;;;;;10.18;5.25;;;;;;;;;;10377548;22;20030;-60
2023/09/13 05:02:25;;;;;;;11.18;5.55;;;;;;;;;;10377467;22;20011;-60
2023/09/13 05:06:25;;;;;;;6.38;5.38;;;;;;;;;;10376829;22;20098;-61
2023/09/13 05:10:29;;;;;;;7.13;5.80;;;;;;;;;;10377433;22;19999;-60
2023/09/13 05:14:29;;;;;;;6.75;5.40;;;;;;;;;;10375481;22;20061;-61
2023/09/13 05:18:30;;;;;;;8.07;5.68;;;;;;;;;;10380230;22;20744;-60
2023/09/13 05:22:30;;;;;;;6.03;5.07;;;;;;;;;;10375244;22;20567;-61
2023/09/13 05:26:30;;;;;;;8.25;5.45;;;;;;;;;;10374872;22;19999;-61
2023/09/13 05:30:31;;;;;;;6.43;5.03;;;;;;;;;;10375106;22;20008;-61
2023/09/13 05:34:31;;;;;;;7.18;4.70;;;;;;;;;;10375481;22;20650;-60
2023/09/13 05:38:32;;;;;;;5.30;4.80;;;;;;;;;;10383343;22;20053;-61
2023/09/13 05:42:32;;;;;;;7.40;4.95;;;;;;;;;;10378278;22;20011;-60
2023/09/13 05:46:33;;;;;;;5.80;4.35;;;;;;;;;;10380476;22;20322;-61
2023/09/13 05:50:33;;;;;;;6.40;4.68;;;;;;;;;;10378844;22;20007;-60
2023/09/13 05:54:33;;;;;;;4.67;3.70;;;;;;;;;;10378778;22;20487;-61
2023/09/13 05:58:33;;;;;;;10.25;4.68;;;;;;;;;;10381313;22;20054;-61
2023/09/13 06:02:34;;;;;;;5.25;4.53;;;;;;;;;;10380620;22;20091;-61
2023/09/13 06:06:35;;;;;;;6.47;4.20;;;;;;;;;;10381378;22;20014;-61
2023/09/13 06:10:35;;;;;;;6.10;3.40;;;;;;;;;;10382314;22;19995;-61
2023/09/13 06:14:36;;;;;;;7.07;3.47;;;;;;;;;;10382529;22;20057;-61
2023/09/13 06:18:36;;;;;;;6.10;3.38;;;;;;;;;;10379117;22;21025;-62
2023/09/13 06:22:37;;;;;;;6.75;3.33;;;;;;;;;;10380054;22;20714;-62
2023/09/13 06:26:37;;;;;;;6.32;3.15;;;;;;;;;;10378361;22;20001;-61
2023/09/13 06:30:37;;;;;;;6.57;3.05;;;;;;;;;;10379149;22;21105;-62
2023/09/13 06:34:37;;;;;;;2.80;2.60;;;;;;;;;;10381293;22;20014;-61
2023/09/13 06:38:38;;;;;;;5.13;3.13;;;;;;;;;;10378904;22;20283;-61
2023/09/13 06:42:38;;;;;;;6.13;2.90;;;;;;;;;;10377988;22;20810;-62
2023/09/13 06:46:38;;;;;;;4.35;2.67;;;;;;;;;;10379179;22;20325;-61
2023/09/13 06:50:39;;;;;;;10.43;3.00;;;;;;;;;;10375310;22;20662;-63
2023/09/13 06:54:39;;;;;;;3.60;2.83;;;;;;;;;;10377587;22;20007;-61
2023/09/13 06:58:39;;;;;;;8.05;2.80;;;;;;;;;;10381256;22;21200;-61
2023/09/13 07:02:39;;;;;;;5.10;3.20;;;;;;;;;;10380911;22;20589;-62
2023/09/13 07:06:40;;;;;;;7.28;2.90;;;;;;;;;;10384940;22;20435;-61
2023/09/13 07:10:40;;;;;;;5.47;3.30;;;;;;;;;;10382576;22;20003;-61
2023/09/13 07:14:40;;;;;;;6.45;3.03;;;;;;;;;;10381623;22;20420;-62
2023/09/13 07:18:40;;;;;;;3.80;2.77;;;;;;;;;;10381842;22;20134;-62
2023/09/13 07:22:41;;;;;;;5.13;2.60;;;;;;;;;;10375417;22;21191;-61
2023/09/13 07:26:41;;;;;;;5.73;3.27;;;;;;;;;;10380261;22;20307;-61
2023/09/13 07:30:41;;;;;;;4.90;3.20;;;;;;;;;;10380606;22;20328;-61
2023/09/13 07:34:41;;;;;;;3.30;2.72;;;;;;;;;;10380210;22;20007;-61
2023/09/13 07:38:41;;;;;;;3.35;3.05;;;;;;;;;;10383768;22;20422;-61
2023/09/13 07:42:42;;;;;;;3.22;2.90;;;;;;;;;;10382058;22;20007;-61
2023/09/13 07:46:42;;;;;;;4.00;2.97;;;;;;;;;;10381980;22;20008;-61
2023/09/13 07:50:44;;;;;;;4.35;3.38;;;;;;;;;;10384477;22;20069;-61
2023/09/13 07:54:44;;;;;;;4.40;3.10;;;;;;;;;;10384075;22;20023;-62
2023/09/13 07:58:44;;;;;;;4.95;3.38;;;;;;;;;;10383095;22;20446;-61
2023/09/13 08:02:46;;;;;;;4.22;3.80;;;;;;;;;;10381924;22;20015;-61
2023/09/13 08:06:46;;;;;;;4.90;3.90;;;;;;;;;;10382427;22;19995;-61
2023/09/13 08:10:46;;;;;;;4.57;3.40;;;;;;;;;;10383598;22;20351;-62
2023/09/13 08:14:47;;;;;;;4.83;2.90;;;;;;;;;;10379798;22;20053;-61
2023/09/13 08:18:47;;;;;;;3.88;3.05;;;;;;;;;;10381958;22;20233;-61
2023/09/13 08:22:47;;;;;;;4.38;3.53;;;;;;;;;;10380138;22;20050;-61
2023/09/13 08:26:47;;;;;;;5.28;3.25;;;;;;;;;;10379285;22;20011;-62
2023/09/13 08:30:49;;;;;;;11.63;3.50;;;;;;;;;;10378820;22;20046;-61
2023/09/13 08:34:49;;;;;;;3.15;2.65;;;;;;;;;;10381290;22;20448;-62
2023/09/13 08:38:49;;;;;;;4.70;3.10;;;;;;;;;;10377131;22;20392;-62
2023/09/13 08:42:50;;;;;;;5.43;2.78;;;;;;;;;;10377486;22;20004;-62
2023/09/13 08:46:55;;;;;;;3.08;2.70;;;;;;;;;;10378944;22;20024;-62
2023/09/13 08:50:55;;;;;;;5.68;3.72;;;;;;;;;;10378392;22;20281;-62
2023/09/13 08:54:56;;;;;;;2.70;2.50;;;;;;;;;;10375920;22;20007;-61
2023/09/13 08:58:56;;;;;;;5.05;3.05;;;;;;;;;;10381139;22;20164;-61
2023/09/13 09:02:59;;;;;;;5.03;2.95;;;;;;;;;;10376593;22;20034;-61
2023/09/13 09:06:59;;;;;;;6.03;2.78;;;;;;;;;;10376072;22;20000;-61
2023/09/13 09:11:00;;;;;;;3.00;2.70;;;;;;;;;;10378909;22;20022;-61
2023/09/13 09:15:00;;;;;;;3.90;2.83;;;;;;;;;;10379487;22;20006;-61
2023/09/13 09:19:01;;;;;;;4.95;3.15;;;;;;;;;;10380897;22;20030;-62
2023/09/13 09:23:01;;;;;;;4.50;3.38;;;;;;;;;;10377844;22;20325;-61
2023/09/13 09:27:02;;;;;;;3.33;2.90;;;;;;;;;;10381916;22;20094;-61
2023/09/13 09:31:03;;;;;;;9.77;2.80;;;;;;;;;;10380296;22;20015;-61
2023/09/13 09:35:07;;;;;;;4.60;2.72;;;;;;;;;;10378729;22;20203;-61
2023/09/13 09:39:07;;;;;;;3.40;2.45;;;;;;;;;;10379283;22;20351;-61
2023/09/13 09:43:07;;;;;;;9.90;3.13;;;;;;;;;;10376750;22;20728;-61
2023/09/13 09:47:12;;;;;;;7.40;2.90;;;;;;;;;;10380199;22;20077;-61
2023/09/13 09:51:12;;;;;;;3.95;2.58;;;;;;;;;;10378030;22;20172;-61
2023/09/13 09:55:13;;;;;;;4.27;2.30;;;;;;;;;;10381257;22;20061;-61
2023/09/13 09:59:13;;;;;;;3.58;2.42;;;;;;;;;;10378765;22;20001;-62
2023/09/13 10:03:17;;;;;;;4.47;2.70;;;;;;;;;;10378626;22;20015;-61
2023/09/13 10:07:17;;;;;;;2.97;2.35;;;;;;;;;;10369003;22;20668;-61
2023/09/13 10:11:21;;;;;;;3.45;2.60;;;;;;;;;;10378128;22;20010;-61
2023/09/13 10:15:22;;;;;;;4.68;2.10;;;;;;;;;;10376616;22;20312;-61
2023/09/13 10:19:22;;;;;;;6.40;2.13;;;;;;;;;;10371700;22;19999;-62
2023/09/13 10:23:29;;;;;;;3.13;2.30;;;;;;;;;;10375804;22;20034;-60
2023/09/13 10:27:31;;;;;;;2.88;2.30;;;;;;;;;;10376131;22;19999;-61
2023/09/13 10:31:34;;;;;;;2.40;2.20;;;;;;;;;;10378395;22;20026;-61
2023/09/13 10:35:39;;;;;;;3.55;2.08;;;;;;;;;;10372335;22;20084;-61
2023/09/13 10:39:43;;;;;;;2.50;1.92;;;;;;;;;;10374894;22;20056;-62
2023/09/13 10:43:46;;;;;;;4.68;1.92;;;;;;;;;;10375629;22;20060;-60
2023/09/13 10:47:47;;;;;;;2.20;2.08;;;;;;;;;;10376077;22;20019;-61
2023/09/13 10:51:48;;;;;;;6.25;2.30;;;;;;;;;;10376533;22;20003;-62
2023/09/13 10:55:49;;;;;;;2.92;2.50;;;;;;;;;;10378760;22;20002;-62
2023/09/13 10:59:50;;;;;;;2.15;1.95;;;;;;;;;;10375032;22;20002;-61
2023/09/13 11:03:51;;;;;;;3.35;2.55;;;;;;;;;;10375462;22;20022;-61
2023/09/13 11:07:51;;;;;;;3.53;2.50;;;;;;;;;;10378966;22;19999;-61
2023/09/13 11:11:52;;;;;;;2.70;2.50;;;;;;;;;;10375559;22;20452;-61
2023/09/13 11:15:53;;;;;;;4.32;2.30;;;;;;;;;;10375359;22;20015;-61
2023/09/13 11:20:15;;;;;;;3.50;2.55;;;;;;;;;;10376456;22;20089;-61
2023/09/13 11:24:36;;;;;;;2.33;2.10;;;;;;;;;;10379380;22;20010;-62
2023/09/13 11:28:36;;;;;;;3.13;2.20;;;;;;;;;;10358729;22;20007;-63
2023/09/13 11:32:37;;;;;;;4.68;2.53;;;;;;;;;;10371829;22;20030;-61
2023/09/13 11:36:38;;;;;;;2.92;2.60;;;;;;;;;;10374613;22;19995;-61
2023/09/13 11:40:40;;;;;;;4.30;2.30;;;;;;;;;;10376010;22;20599;-61
2023/09/13 11:44:40;;;;;;;3.08;2.05;;;;;;;;;;10368891;22;20075;-60
2023/09/13 11:48:41;;;;;;;3.42;2.28;;;;;;;;;;10371340;22;20406;-60
2023/09/13 11:53:00;;;;;;;2.50;2.10;;;;;;;;;;10376267;22;20003;-62
2023/09/13 11:57:02;;;;;;;2.08;1.88;;;;;;;;;;10376380;22;20053;-62
2023/09/13 12:01:04;;;;;;;2.20;2.00;;;;;;;;;;10378080;22;20020;-61
2023/09/13 12:05:05;;;;;;;2.15;1.95;;;;;;;;;;10379017;22;20041;-61
2023/09/13 12:09:16;;;;;;;1.90;1.80;;;;;;;;;;10378358;22;20346;-61
2023/09/13 12:13:17;;;;;;;2.22;1.50;;;;;;;;;;10377589;22;20030;-60
2023/09/13 12:17:17;;;;;;;2.47;1.58;;;;;;;;;;10375906;22;20069;-61
2023/09/13 12:21:17;;;;;;;4.17;1.97;;;;;;;;;;10364745;22;20491;-60
2023/09/13 12:25:17;;;;;;;1.73;1.63;;;;;;;;;;10374687;22;20079;-61
2023/09/13 12:29:18;;;;;;;2.13;1.80;;;;;;;;;;10376851;22;20003;-62
2023/09/13 12:33:18;;;;;;;2.42;1.83;;;;;;;;;;10375248;22;20015;-60
2023/09/13 12:37:18;;;;;;;1.88;1.60;;;;;;;;;;10381155;22;19999;-62
2023/09/13 12:41:26;;;;;;;1.98;1.80;;;;;;;;;;10376545;22;20099;-62
2023/09/13 12:45:30;;;;;;;2.10;1.90;;;;;;;;;;10375918;22;20423;-61
2023/09/13 12:49:30;;;;;;;2.47;1.90;;;;;;;;;;10367588;22;20728;-61
2023/09/13 12:53:31;;;;;;;1.70;1.60;;;;;;;;;;10371067;22;20083;-61
2023/09/13 12:57:31;;;;;;;2.60;1.60;;;;;;;;;;10371106;22;20034;-61
2023/09/13 13:01:31;;;;;;;2.13;1.90;;;;;;;;;;10372628;22;20249;-61
2023/09/13 13:05:39;;;;;;;1.73;1.63;;;;;;;;;;10372403;22;20014;-61
2023/09/13 13:09:39;;;;;;;1.42;1.33;;;;;;;;;;10368820;22;20042;-61
2023/09/13 13:13:39;;;;;;;3.10;1.67;;;;;;;;;;10376642;22;20385;-62
2023/09/13 13:17:40;;;;;;;2.20;1.65;;;;;;;;;;10370334;22;20184;-61
2023/09/13 13:21:40;;;;;;;1.60;1.50;;;;;;;;;;10369820;22;20257;-61
2023/09/13 13:25:43;;;;;;;1.67;1.58;;;;;;;;;;10368922;22;20513;-61
2023/09/13 13:29:44;;;;;;;2.55;1.40;;;;;;;;;;10366158;22;20019;-61
2023/09/13 13:33:44;;;;;;;4.30;1.60;;;;;;;;;;10370275;22;20102;-61
2023/09/13 13:37:45;;;;;;;2.17;1.33;;;;;;;;;;10364897;22;20295;-62
2023/09/13 13:41:45;;;;;;;1.67;1.58;;;;;;;;;;10372306;22;20007;-61
2023/09/13 13:45:46;;;;;;;2.17;1.60;;;;;;;;;;10368977;22;20082;-60
2023/09/13 13:49:46;;;;;;;3.15;1.83;;;;;;;;;;10365684;22;20019;-60
2023/09/13 13:53:46;;;;;;;1.67;1.53;;;;;;;;;;10368131;22;19998;-60
2023/09/13 13:57:46;;;;;;;2.72;1.60;;;;;;;;;;10371150;22;20003;-60
2023/09/13 14:01:47;;;;;;;2.00;1.60;;;;;;;;;;10370889;22;20597;-61
2023/09/13 14:05:47;;;;;;;1.67;1.52;;;;;;;;;;10367750;22;20010;-61
2023/09/13 14:09:48;;;;;;;1.50;1.40;;;;;;;;;;10368657;22;20014;-61
2023/09/13 14:13:48;;;;;;;1.60;1.50;;;;;;;;;;10369836;22;20069;-60
2023/09/13 14:17:48;;;;;;;2.72;1.70;;;;;;;;;;10367852;22;20019;-60
2023/09/13 14:21:48;;;;;;;1.50;1.40;;;;;;;;;;10369257;22;19999;-62
2023/09/13 14:25:48;;;;;;;3.35;1.60;;;;;;;;;;10368293;22;20007;-60
2023/09/13 14:29:49;;;;;;;2.87;1.70;;;;;;;;;;10368616;22;20007;-62
2023/09/13 14:33:50;;;;;;;1.77;1.38;;;;;;;;;;10361228;22;20038;-60
2023/09/13 14:37:50;;;;;;;1.60;1.50;;;;;;;;;;10372910;22;20003;-61
2023/09/13 14:41:52;;;;;;;2.97;1.60;;;;;;;;;;10370340;22;20015;-60
2023/09/13 14:45:53;;;;;;;2.05;1.55;;;;;;;;;;10359718;22;20588;-60
2023/09/13 14:49:54;;;;;;;1.60;1.50;;;;;;;;;;10366727;22;20021;-61
2023/09/13 14:53:54;;;;;;;3.00;1.40;;;;;;;;;;10368061;22;20027;-60
2023/09/13 14:57:54;;;;;;;3.40;1.80;;;;;;;;;;10346069;22;20006;-60
2023/09/13 15:01:56;;;;;;;3.28;1.60;;;;;;;;;;10363992;22;20049;-60
2023/09/13 15:05:57;;;;;;;2.50;1.40;;;;;;;;;;10368806;22;20004;-60
2023/09/13 15:09:57;;;;;;;2.42;1.60;;;;;;;;;;10358876;22;21136;-60
2023/09/13 15:13:57;;;;;;;2.13;1.40;;;;;;;;;;10362859;22;20284;-60
2023/09/13 15:17:57;;;;;;;3.10;1.70;;;;;;;;;;10366344;22;20015;-61
2023/09/13 15:21:58;;;;;;;3.40;1.57;;;;;;;;;;10352666;22;20082;-61
2023/09/13 15:25:58;;;;;;;2.50;1.60;;;;;;;;;;10373020;22;20000;-60
2023/09/13 15:30:02;;;;;;;2.30;1.40;;;;;;;;;;10372696;22;20250;-61
2023/09/13 15:34:08;;;;;;;2.65;1.58;;;;;;;;;;10369127;22;20030;-61
2023/09/13 15:38:08;;;;;;;1.50;1.40;;;;;;;;;;10370357;22;20538;-60
2023/09/13 15:42:08;;;;;;;4.85;2.22;;;;;;;;;;10373135;22;20011;-60
2023/09/13 15:46:09;;;;;;;3.10;1.90;;;;;;;;;;10374198;22;20011;-60
2023/09/13 15:50:10;;;;;;;2.00;1.60;;;;;;;;;;10371787;22;20237;-60
2023/09/13 15:54:10;;;;;;;2.45;1.70;;;;;;;;;;10373072;22;20640;-60
2023/09/13 15:58:10;;;;;;;2.88;1.80;;;;;;;;;;10373194;22;20444;-60
2023/09/13 16:02:11;;;;;;;2.22;1.83;;;;;;;;;;10370070;22;20482;-60
2023/09/13 16:06:11;;;;;;;2.17;1.70;;;;;;;;;;10372911;22;20016;-60
2023/09/13 16:10:11;;;;;;;3.90;1.85;;;;;;;;;;10368729;22;19999;-60
2023/09/13 16:14:28;;;;;;;1.97;1.60;;;;;;;;;;10370191;22;20033;-60
2023/09/13 16:18:28;;;;;;;2.00;1.75;;;;;;;;;;10371642;22;20050;-60
2023/09/13 16:22:29;;;;;;;3.10;1.92;;;;;;;;;;10371279;22;19999;-59
2023/09/13 16:26:29;;;;;;;1.95;1.60;;;;;;;;;;10369808;22;20103;-59
2023/09/13 16:30:30;;;;;;;2.33;1.70;;;;;;;;;;10369080;22;20113;-60
2023/09/13 16:34:30;;;;;;;2.53;1.80;;;;;;;;;;10367006;22;20003;-59
2023/09/13 16:38:31;;;;;;;2.78;1.73;;;;;;;;;;10369330;22;19999;-60
2023/09/13 16:42:31;;;;;;;1.77;1.67;;;;;;;;;;10368187;22;20816;-59
2023/09/13 16:46:31;;;;;;;1.77;1.60;;;;;;;;;;10368274;22;20018;-60
2023/09/13 16:50:31;;;;;;;3.42;1.88;;;;;;;;;;10367958;22;20010;-60
2023/09/13 16:54:31;;;;;;;5.57;1.77;;;;;;;;;;10368308;22;19999;-59
2023/09/13 16:58:32;;;;;;;2.83;1.90;;;;;;;;;;10367346;22;20023;-60
2023/09/13 17:02:32;;;;;;;2.70;1.90;;;;;;;;;;10364943;22;20026;-59
2023/09/13 17:06:33;;;;;;;2.30;1.52;;;;;;;;;;10368832;22;19992;-59
2023/09/13 17:10:33;;;;;;;1.63;1.52;;;;;;;;;;10369637;22;20037;-60
2023/09/13 17:14:36;;;;;;;2.15;1.60;;;;;;;;;;10367128;22;20003;-60
2023/09/13 17:18:36;;;;;;;3.88;1.80;;;;;;;;;;10370939;22;21003;-60
2023/09/13 17:22:37;;;;;;;2.10;1.55;;;;;;;;;;10368327;22;19999;-59
2023/09/13 17:26:37;;;;;;;2.60;1.70;;;;;;;;;;10367909;22;20003;-59
2023/09/13 17:30:37;;;;;;;2.67;1.70;;;;;;;;;;10366278;22;20530;-59
2023/09/13 17:34:37;;;;;;;3.33;1.97;;;;;;;;;;10369827;22;20106;-59
2023/09/13 17:38:37;;;;;;;3.08;1.85;;;;;;;;;;10370195;22;20109;-60
2023/09/13 17:42:38;;;;;;;1.80;1.70;;;;;;;;;;10369047;22;20014;-60
2023/09/13 17:46:38;;;;;;;2.10;1.90;;;;;;;;;;10368471;22;20035;-59
2023/09/13 17:50:38;;;;;;;2.55;1.77;;;;;;;;;;10366717;22;20552;-64
2023/09/13 17:54:38;;;;;;;2.30;1.70;;;;;;;;;;10367497;22;20089;-59
2023/09/13 17:58:39;;;;;;;1.97;1.63;;;;;;;;;;10367912;22;21155;-60
2023/09/13 18:02:39;;;;;;;1.70;1.60;;;;;;;;;;10365708;22;20089;-61
2023/09/13 18:06:39;;;;;;;2.35;2.15;;;;;;;;;;10363138;22;20165;-59
2023/09/13 18:10:40;;;;;;;3.58;2.20;;;;;;;;;;10365325;22;20011;-59
2023/09/13 18:14:40;;;;;;;2.70;2.30;;;;;;;;;;10366508;22;20585;-59
2023/09/13 18:18:41;;;;;;;4.90;2.40;;;;;;;;;;10369407;22;20011;-60
2023/09/13 18:22:42;;;;;;;2.78;2.30;;;;;;;;;;10366248;22;20053;-60
2023/09/13 18:26:42;;;;;;;3.30;3.00;;;;;;;;;;10365106;22;20003;-59
2023/09/13 18:30:43;;;;;;;3.28;3.03;;;;;;;;;;10360845;22;20424;-60
2023/09/13 18:34:43;;;;;;;3.55;3.10;;;;;;;;;;10362831;22;20265;-60
2023/09/13 18:38:43;;;;;;;4.07;3.10;;;;;;;;;;10363733;22;20003;-59
2023/09/13 18:42:43;;;;;;;4.47;3.00;;;;;;;;;;10359001;22;20029;-59
2023/09/13 18:46:44;;;;;;;3.93;3.40;;;;;;;;;;10363592;22;20350;-59
2023/09/13 18:50:52;;;;;;;3.88;3.38;;;;;;;;;;10366488;22;20011;-59
2023/09/13 18:54:52;;;;;;;3.63;3.33;;;;;;;;;;10369522;22;20515;-60
2023/09/13 18:58:52;;;;;;;4.38;3.97;;;;;;;;;;10367925;22;20442;-60
2023/09/13 19:02:52;;;;;;;4.40;4.03;;;;;;;;;;10369700;22;20019;-60
2023/09/13 19:06:53;;;;;;;4.63;4.22;;;;;;;;;;10370475;22;20098;-60
2023/09/13 19:10:55;;;;;;;4.38;4.07;;;;;;;;;;10373490;22;20026;-59
2023/09/13 19:14:55;;;;;;;5.80;4.75;;;;;;;;;;10371080;22;20143;-61
2023/09/13 19:18:57;;;;;;;5.18;4.38;;;;;;;;;;10370236;22;20023;-61
2023/09/13 19:22:57;;;;;;;4.43;4.10;;;;;;;;;;10370490;22;20854;-61
2023/09/13 19:26:58;;;;;;;5.37;4.47;;;;;;;;;;10371170;22;20014;-61
2023/09/13 19:30:59;;;;;;;4.70;4.30;;;;;;;;;;10373528;22;20012;-61
2023/09/13 19:34:59;;;;;;;5.65;4.88;;;;;;;;;;10372854;22;20404;-61
2023/09/13 19:39:01;;;;;;;4.40;4.10;;;;;;;;;;10373509;22;20009;-61
2023/09/13 19:43:01;;;;;;;4.80;4.30;;;;;;;;;;10372068;22;20002;-61
2023/09/13 19:47:05;;;;;;;4.27;3.87;;;;;;;;;;10372655;22;20106;-61
2023/09/13 19:51:05;;;;;;;;;;;;;;;;;;10372532;22;20007;-61
2023/09/13 19:55:05;;;;;;;4.18;3.80;;;;;;;;;;10375948;22;19918;-61
2023/09/13 19:59:06;;;;;;;6.15;3.80;;;;;;;;;;10368049;22;20007;-60
2023/09/13 20:03:06;;;;;;;4.45;3.85;;;;;;;;;;10367397;22;20353;-61
2023/09/13 20:07:06;;;;;;;3.65;3.35;;;;;;;;;;10373712;22;19995;-60
2023/09/13 20:11:08;;;;;;;3.63;3.23;;;;;;;;;;10372214;22;20118;-61
2023/09/13 20:15:09;;;;;;;3.63;3.30;;;;;;;;;;10375305;22;20003;-61
2023/09/13 20:19:09;;;;;;;5.03;3.13;;;;;;;;;;10375833;22;20002;-61
2023/09/13 20:23:09;;;;;;;4.78;3.40;;;;;;;;;;10378412;22;20376;-61
2023/09/13 20:27:09;;;;;;;3.57;2.90;;;;;;;;;;10380728;22;20065;-60
2023/09/13 20:31:10;;;;;;;3.60;3.40;;;;;;;;;;10380376;22;20011;-61
2023/09/13 20:35:12;;;;;;;5.77;3.50;;;;;;;;;;10381676;22;20026;-61
2023/09/13 20:39:12;;;;;;;8.35;3.40;;;;;;;;;;10379676;22;20058;-61
2023/09/13 20:43:13;;;;;;;3.90;3.22;;;;;;;;;;10382492;22;20011;-61
2023/09/13 20:47:14;;;;;;;3.67;3.28;;;;;;;;;;10378484;22;20098;-61
2023/09/13 20:51:14;;;;;;;7.82;3.08;;;;;;;;;;10373929;22;20060;-60
2023/09/13 20:55:14;;;;;;;5.88;3.10;;;;;;;;;;10380913;22;20376;-60
2023/09/13 20:59:15;;;;;;;2.72;2.53;;;;;;;;;;10381415;22;20032;-61
2023/09/13 21:03:15;;;;;;;3.35;2.70;;;;;;;;;;10378099;22;20666;-60
2023/09/13 21:07:15;;;;;;;5.03;2.45;;;;;;;;;;10373833;22;20010;-61
2023/09/13 21:11:15;;;;;;;3.63;2.42;;;;;;;;;;10377771;22;20011;-61
2023/09/13 21:15:15;;;;;;;2.97;2.33;;;;;;;;;;10375820;22;19995;-61
2023/09/13 21:19:18;;;;;;;3.50;2.25;;;;;;;;;;10376138;22;20007;-62
2023/09/13 21:23:18;;;;;;;2.63;2.10;;;;;;;;;;10374229;22;19999;-61
2023/09/13 21:27:18;;;;;;;3.20;2.10;;;;;;;;;;10378708;22;20132;-61
2023/09/13 21:31:19;;;;;;;2.20;1.98;;;;;;;;;;10380480;22;20007;-61
2023/09/13 21:35:19;;;;;;;2.15;1.95;;;;;;;;;;10384154;22;20006;-61
2023/09/13 21:39:19;;;;;;;6.40;1.98;;;;;;;;;;10376428;22;20003;-61
2023/09/13 21:43:20;;;;;;;2.23;2.03;;;;;;;;;;10382860;22;20011;-60
2023/09/13 21:47:20;;;;;;;2.15;1.70;;;;;;;;;;10378614;22;20014;-61
2023/09/13 21:51:20;;;;;;;3.40;2.00;;;;;;;;;;10376824;22;20011;-60
2023/09/13 21:55:20;;;;;;;1.70;1.60;;;;;;;;;;10385468;22;19999;-60
2023/09/13 21:59:21;;;;;;;2.57;1.70;;;;;;;;;;10377023;22;20099;-60
2023/09/13 22:03:21;;;;;;;2.95;1.85;;;;;;;;;;10378749;22;20020;-60
2023/09/13 22:07:22;;;;;;;1.63;1.50;;;;;;;;;;10376403;22;20102;-60
2023/09/13 22:11:25;;;;;;;1.93;1.53;;;;;;;;;;10375054;22;20053;-60
2023/09/13 22:15:26;;;;;;;1.90;1.80;;;;;;;;;;10379682;22;20003;-60
2023/09/13 22:19:27;;;;;;;2.38;1.70;;;;;;;;;;10379935;22;20428;-60
2023/09/13 22:23:30;;;;;;;2.03;1.88;;;;;;;;;;10380784;22;20022;-60
2023/09/13 22:27:31;;;;;;;1.60;1.50;;;;;;;;;;10383032;22;20022;-60
2023/09/13 22:31:31;;;;;;;2.35;1.60;;;;;;;;;;10384336;22;20011;-60
2023/09/13 22:35:31;;;;;;;2.50;1.70;;;;;;;;;;10386568;22;19998;-60
2023/09/13 22:39:32;;;;;;;2.63;1.77;;;;;;;;;;10383475;22;20003;-61
2023/09/13 22:43:32;;;;;;;2.63;1.95;;;;;;;;;;10386011;22;20058;-61
2023/09/13 22:47:34;;;;;;;2.10;1.47;;;;;;;;;;10384772;22;20015;-61
2023/09/13 22:51:35;;;;;;;3.13;1.58;;;;;;;;;;10382540;22;20026;-60
2023/09/13 22:55:36;;;;;;;1.60;1.50;;;;;;;;;;10381951;22;20007;-60
2023/09/13 22:59:37;;;;;;;3.08;1.70;;;;;;;;;;10380389;22;20026;-60
2023/09/13 23:03:37;;;;;;;2.10;1.60;;;;;;;;;;10381770;22;20011;-60
2023/09/13 23:07:37;;;;;;;5.05;1.50;;;;;;;;;;10376592;22;19999;-60
2023/09/13 23:11:41;;;;;;;2.50;1.60;;;;;;;;;;10386229;22;20745;-60
2023/09/13 23:15:41;;;;;;;1.73;1.60;;;;;;;;;;10378842;22;20007;-63
2023/09/13 23:19:41;;;;;;;5.00;1.80;;;;;;;;;;10381611;22;20357;-61
2023/09/13 23:23:44;;;;;;;2.40;1.52;;;;;;;;;;10377808;22;20011;-60
2023/09/13 23:27:44;;;;;;;2.42;1.55;;;;;;;;;;10375626;22;20515;-60
2023/09/13 23:31:44;;;;;;;2.53;1.40;;;;;;;;;;10378132;22;20118;-61
2023/09/13 23:35:45;;;;;;;2.22;1.40;;;;;;;;;;10380360;22;20006;-60
2023/09/13 23:39:45;;;;;;;2.40;1.50;;;;;;;;;;10380605;22;20511;-60
2023/09/13 23:43:48;;;;;;;1.67;1.45;;;;;;;;;;10382559;22;20379;-60